La Paz, Honduras
Current Conditions -  °F | °C
As of 9:00 PM on Saturday 20 Dec 2014 (Local Time) from MHTG Reporting Station
Scattered Clouds Scattered Clouds  
Wind Chill: 21°   Ceiling: Unl
Heat Index: 21°   Visibility: 6mi
Dew Point: 19°   Wind: 9mph
Humidity: 88%   Direction: 360°N
Pressure: 30.12"   Gusts: NA
Location:  14.2°N, 87.4°W
Report Text: MHTG 210300Z 36008KT 9999 SCT026 21/19 Q1020 A3012 NOSIG
Loading
Personal Weather Stations






























Interactive Weather Map New forecast layout! Learn more

10-Day Weather Forecast

Advertisements
Track Severe Weather on mobile